sensor_id;sensor_type;location;lat;lon;timestamp;P1;durP1;ratioP1;P2;durP2;ratioP2
62584;SDS011;48643;51.670;5.808;2022-07-05T00:01:01;1.83;;;1.73;;
62584;SDS011;48643;51.670;5.808;2022-07-05T00:03:28;3.92;;;1.70;;
62584;SDS011;48643;51.670;5.808;2022-07-05T00:05:56;3.42;;;1.90;;
62584;SDS011;48643;51.670;5.808;2022-07-05T00:08:24;2.30;;;1.73;;
62584;SDS011;48643;51.670;5.808;2022-07-05T00:10:51;4.05;;;1.70;;
62584;SDS011;48643;51.670;5.808;2022-07-05T00:13:19;2.83;;;1.70;;
62584;SDS011;48643;51.670;5.808;2022-07-05T00:15:46;4.38;;;1.85;;
62584;SDS011;48643;51.670;5.808;2022-07-05T00:18:14;2.50;;;1.60;;
62584;SDS011;48643;51.670;5.808;2022-07-05T00:20:41;4.50;;;1.85;;
62584;SDS011;48643;51.670;5.808;2022-07-05T00:23:08;3.38;;;1.92;;
62584;SDS011;48643;51.670;5.808;2022-07-05T00:25:36;2.42;;;1.70;;
62584;SDS011;48643;51.670;5.808;2022-07-05T00:28:03;3.97;;;2.00;;
62584;SDS011;48643;51.670;5.808;2022-07-05T00:30:31;4.13;;;1.80;;
62584;SDS011;48643;51.670;5.808;2022-07-05T00:32:58;3.58;;;1.83;;
62584;SDS011;48643;51.670;5.808;2022-07-05T00:35:25;3.05;;;1.90;;
62584;SDS011;48643;51.670;5.808;2022-07-05T00:37:53;3.17;;;1.90;;
62584;SDS011;48643;51.670;5.808;2022-07-05T00:40:20;3.20;;;2.00;;
62584;SDS011;48643;51.670;5.808;2022-07-05T00:42:48;2.65;;;1.73;;
62584;SDS011;48643;51.670;5.808;2022-07-05T00:45:15;2.28;;;1.80;;
62584;SDS011;48643;51.670;5.808;2022-07-05T00:47:42;3.88;;;1.90;;
62584;SDS011;48643;51.670;5.808;2022-07-05T00:50:10;2.00;;;1.80;;
62584;SDS011;48643;51.670;5.808;2022-07-05T00:52:37;2.75;;;1.90;;
62584;SDS011;48643;51.670;5.808;2022-07-05T00:55:05;2.88;;;1.80;;
62584;SDS011;48643;51.670;5.808;2022-07-05T00:57:33;2.28;;;1.83;;
62584;SDS011;48643;51.670;5.808;2022-07-05T01:00:01;3.75;;;1.90;;
62584;SDS011;48643;51.670;5.808;2022-07-05T01:02:28;2.45;;;1.70;;
62584;SDS011;48643;51.670;5.808;2022-07-05T01:04:56;2.83;;;1.90;;
62584;SDS011;48643;51.670;5.808;2022-07-05T01:07:24;2.53;;;1.73;;
62584;SDS011;48643;51.670;5.808;2022-07-05T01:09:52;3.42;;;1.98;;
62584;SDS011;48643;51.670;5.808;2022-07-05T01:12:20;3.10;;;1.85;;
62584;SDS011;48643;51.670;5.808;2022-07-05T01:14:47;3.45;;;1.90;;
62584;SDS011;48643;51.670;5.808;2022-07-05T01:17:16;4.00;;;2.10;;
62584;SDS011;48643;51.670;5.808;2022-07-05T01:19:43;3.10;;;1.98;;
62584;SDS011;48643;51.670;5.808;2022-07-05T01:22:20;3.55;;;2.00;;
62584;SDS011;48643;51.670;5.808;2022-07-05T01:24:49;2.55;;;1.85;;
62584;SDS011;48643;51.670;5.808;2022-07-05T01:27:18;2.47;;;1.80;;
62584;SDS011;48643;51.670;5.808;2022-07-05T01:29:46;3.25;;;2.00;;
62584;SDS011;48643;51.670;5.808;2022-07-05T01:32:13;2.60;;;2.00;;
62584;SDS011;48643;51.670;5.808;2022-07-05T01:34:41;2.88;;;1.92;;
62584;SDS011;48643;51.670;5.808;2022-07-05T01:37:09;3.85;;;1.90;;
62584;SDS011;48643;51.670;5.808;2022-07-05T01:39:37;3.35;;;1.90;;
62584;SDS011;48643;51.670;5.808;2022-07-05T01:42:05;3.78;;;1.80;;
62584;SDS011;48643;51.670;5.808;2022-07-05T01:44:33;5.00;;;2.10;;
62584;SDS011;48643;51.670;5.808;2022-07-05T01:47:02;2.83;;;2.10;;
62584;SDS011;48643;51.670;5.808;2022-07-05T01:49:32;3.50;;;2.13;;
62584;SDS011;48643;51.670;5.808;2022-07-05T01:52:07;3.40;;;2.10;;
62584;SDS011;48643;51.670;5.808;2022-07-05T01:54:36;2.67;;;1.98;;
62584;SDS011;48643;51.670;5.808;2022-07-05T01:57:07;2.78;;;1.92;;
62584;SDS011;48643;51.670;5.808;2022-07-05T01:59:35;3.13;;;2.25;;
62584;SDS011;48643;51.670;5.808;2022-07-05T02:02:03;2.53;;;1.90;;
62584;SDS011;48643;51.670;5.808;2022-07-05T02:04:31;2.70;;;1.75;;
62584;SDS011;48643;51.670;5.808;2022-07-05T02:07:05;3.05;;;2.00;;
62584;SDS011;48643;51.670;5.808;2022-07-05T02:09:32;4.35;;;2.10;;
62584;SDS011;48643;51.670;5.808;2022-07-05T02:12:01;2.55;;;2.00;;
62584;SDS011;48643;51.670;5.808;2022-07-05T02:14:29;3.22;;;2.00;;
62584;SDS011;48643;51.670;5.808;2022-07-05T02:16:57;4.63;;;2.03;;
62584;SDS011;48643;51.670;5.808;2022-07-05T02:19:25;3.97;;;2.00;;
62584;SDS011;48643;51.670;5.808;2022-07-05T02:21:54;3.53;;;2.13;;
62584;SDS011;48643;51.670;5.808;2022-07-05T02:24:21;3.15;;;1.90;;
62584;SDS011;48643;51.670;5.808;2022-07-05T02:27:09;3.58;;;1.90;;
62584;SDS011;48643;51.670;5.808;2022-07-05T02:29:37;3.05;;;2.00;;
62584;SDS011;48643;51.670;5.808;2022-07-05T02:32:05;2.38;;;1.90;;
62584;SDS011;48643;51.670;5.808;2022-07-05T02:34:33;3.00;;;2.00;;
62584;SDS011;48643;51.670;5.808;2022-07-05T02:37:01;2.60;;;2.08;;
62584;SDS011;48643;51.670;5.808;2022-07-05T02:39:29;2.80;;;2.00;;
62584;SDS011;48643;51.670;5.808;2022-07-05T02:41:58;2.17;;;1.95;;
62584;SDS011;48643;51.670;5.808;2022-07-05T02:44:26;4.03;;;2.20;;
62584;SDS011;48643;51.670;5.808;2022-07-05T02:46:54;3.72;;;2.30;;
62584;SDS011;48643;51.670;5.808;2022-07-05T02:49:23;3.20;;;1.88;;
62584;SDS011;48643;51.670;5.808;2022-07-05T02:51:52;2.20;;;1.98;;
62584;SDS011;48643;51.670;5.808;2022-07-05T02:54:19;2.65;;;2.03;;
62584;SDS011;48643;51.670;5.808;2022-07-05T02:56:47;4.40;;;2.28;;
62584;SDS011;48643;51.670;5.808;2022-07-05T02:59:16;4.03;;;1.90;;
62584;SDS011;48643;51.670;5.808;2022-07-05T03:01:43;2.45;;;1.85;;
62584;SDS011;48643;51.670;5.808;2022-07-05T03:04:14;2.53;;;2.20;;
62584;SDS011;48643;51.670;5.808;2022-07-05T03:06:48;4.88;;;2.00;;
62584;SDS011;48643;51.670;5.808;2022-07-05T03:09:22;3.40;;;1.98;;
62584;SDS011;48643;51.670;5.808;2022-07-05T03:11:49;5.25;;;2.10;;
62584;SDS011;48643;51.670;5.808;2022-07-05T03:14:17;4.47;;;2.10;;
62584;SDS011;48643;51.670;5.808;2022-07-05T03:16:46;4.35;;;1.90;;
62584;SDS011;48643;51.670;5.808;2022-07-05T03:19:14;2.72;;;1.92;;
62584;SDS011;48643;51.670;5.808;2022-07-05T03:21:41;2.80;;;2.10;;
62584;SDS011;48643;51.670;5.808;2022-07-05T03:24:10;3.92;;;2.10;;
62584;SDS011;48643;51.670;5.808;2022-07-05T03:26:39;2.50;;;2.00;;
62584;SDS011;48643;51.670;5.808;2022-07-05T03:29:07;4.07;;;2.10;;
62584;SDS011;48643;51.670;5.808;2022-07-05T03:31:35;2.72;;;1.92;;
62584;SDS011;48643;51.670;5.808;2022-07-05T03:34:04;2.72;;;2.10;;
62584;SDS011;48643;51.670;5.808;2022-07-05T03:36:32;4.40;;;2.10;;
62584;SDS011;48643;51.670;5.808;2022-07-05T03:39:04;3.30;;;2.00;;
62584;SDS011;48643;51.670;5.808;2022-07-05T03:41:33;3.28;;;2.10;;
62584;SDS011;48643;51.670;5.808;2022-07-05T03:44:02;3.28;;;2.20;;
62584;SDS011;48643;51.670;5.808;2022-07-05T03:46:32;6.47;;;2.13;;
62584;SDS011;48643;51.670;5.808;2022-07-05T03:49:00;2.97;;;2.03;;
62584;SDS011;48643;51.670;5.808;2022-07-05T03:51:28;3.25;;;2.20;;
62584;SDS011;48643;51.670;5.808;2022-07-05T03:53:56;2.40;;;2.00;;
62584;SDS011;48643;51.670;5.808;2022-07-05T03:56:25;2.92;;;2.03;;
62584;SDS011;48643;51.670;5.808;2022-07-05T03:58:57;4.80;;;2.10;;
62584;SDS011;48643;51.670;5.808;2022-07-05T04:01:25;3.38;;;2.13;;
62584;SDS011;48643;51.670;5.808;2022-07-05T04:03:54;5.15;;;2.20;;
62584;SDS011;48643;51.670;5.808;2022-07-05T04:06:24;4.78;;;2.28;;
62584;SDS011;48643;51.670;5.808;2022-07-05T04:08:52;2.70;;;2.10;;
62584;SDS011;48643;51.670;5.808;2022-07-05T04:11:20;2.60;;;2.00;;
62584;SDS011;48643;51.670;5.808;2022-07-05T04:13:50;2.63;;;2.28;;
62584;SDS011;48643;51.670;5.808;2022-07-05T04:16:18;2.70;;;2.10;;
62584;SDS011;48643;51.670;5.808;2022-07-05T04:18:46;2.95;;;2.08;;
62584;SDS011;48643;51.670;5.808;2022-07-05T04:21:14;2.95;;;2.08;;
62584;SDS011;48643;51.670;5.808;2022-07-05T04:23:41;3.83;;;2.25;;
62584;SDS011;48643;51.670;5.808;2022-07-05T04:26:10;3.97;;;2.30;;
62584;SDS011;48643;51.670;5.808;2022-07-05T04:28:42;3.28;;;2.25;;
62584;SDS011;48643;51.670;5.808;2022-07-05T04:31:13;3.42;;;2.28;;
62584;SDS011;48643;51.670;5.808;2022-07-05T04:33:44;3.72;;;2.13;;
62584;SDS011;48643;51.670;5.808;2022-07-05T04:36:16;3.38;;;2.55;;
62584;SDS011;48643;51.670;5.808;2022-07-05T04:38:44;6.07;;;2.50;;
62584;SDS011;48643;51.670;5.808;2022-07-05T04:41:12;4.30;;;2.47;;
62584;SDS011;48643;51.670;5.808;2022-07-05T04:43:40;3.35;;;2.50;;
62584;SDS011;48643;51.670;5.808;2022-07-05T04:46:11;4.30;;;2.35;;
62584;SDS011;48643;51.670;5.808;2022-07-05T04:48:38;3.15;;;2.30;;
62584;SDS011;48643;51.670;5.808;2022-07-05T04:51:08;3.00;;;2.47;;
62584;SDS011;48643;51.670;5.808;2022-07-05T04:53:36;3.67;;;2.28;;
62584;SDS011;48643;51.670;5.808;2022-07-05T04:56:03;4.07;;;2.50;;
62584;SDS011;48643;51.670;5.808;2022-07-05T04:58:32;4.68;;;2.20;;
62584;SDS011;48643;51.670;5.808;2022-07-05T05:00:59;7.25;;;2.85;;
62584;SDS011;48643;51.670;5.808;2022-07-05T05:03:27;3.45;;;2.30;;
62584;SDS011;48643;51.670;5.808;2022-07-05T05:05:54;3.13;;;2.10;;
62584;SDS011;48643;51.670;5.808;2022-07-05T05:08:21;2.50;;;1.90;;
62584;SDS011;48643;51.670;5.808;2022-07-05T05:10:49;2.50;;;2.10;;
62584;SDS011;48643;51.670;5.808;2022-07-05T05:13:16;4.72;;;2.60;;
62584;SDS011;48643;51.670;5.808;2022-07-05T05:15:43;3.13;;;1.92;;
62584;SDS011;48643;51.670;5.808;2022-07-05T05:18:12;3.45;;;2.30;;
62584;SDS011;48643;51.670;5.808;2022-07-05T05:23:08;3.40;;;2.10;;
62584;SDS011;48643;51.670;5.808;2022-07-05T05:25:36;5.45;;;2.33;;
62584;SDS011;48643;51.670;5.808;2022-07-05T05:28:03;3.75;;;2.30;;
62584;SDS011;48643;51.670;5.808;2022-07-05T05:30:31;3.53;;;2.33;;
62584;SDS011;48643;51.670;5.808;2022-07-05T05:32:58;4.30;;;2.50;;
62584;SDS011;48643;51.670;5.808;2022-07-05T05:35:25;4.15;;;2.25;;
62584;SDS011;48643;51.670;5.808;2022-07-05T05:37:53;4.20;;;2.53;;
62584;SDS011;48643;51.670;5.808;2022-07-05T05:40:22;2.90;;;2.20;;
62584;SDS011;48643;51.670;5.808;2022-07-05T05:42:50;4.68;;;2.25;;
62584;SDS011;48643;51.670;5.808;2022-07-05T05:45:18;4.35;;;2.35;;
62584;SDS011;48643;51.670;5.808;2022-07-05T05:47:49;2.78;;;2.10;;
62584;SDS011;48643;51.670;5.808;2022-07-05T05:50:17;4.75;;;2.08;;
62584;SDS011;48643;51.670;5.808;2022-07-05T05:52:45;3.25;;;2.30;;
62584;SDS011;48643;51.670;5.808;2022-07-05T05:55:13;4.60;;;2.30;;
62584;SDS011;48643;51.670;5.808;2022-07-05T05:57:40;3.15;;;2.15;;
62584;SDS011;48643;51.670;5.808;2022-07-05T06:00:08;2.97;;;2.08;;
62584;SDS011;48643;51.670;5.808;2022-07-05T06:02:39;3.90;;;2.17;;
62584;SDS011;48643;51.670;5.808;2022-07-05T06:05:07;2.58;;;2.13;;
62584;SDS011;48643;51.670;5.808;2022-07-05T06:07:44;2.83;;;2.03;;
62584;SDS011;48643;51.670;5.808;2022-07-05T06:10:16;4.68;;;2.10;;
62584;SDS011;48643;51.670;5.808;2022-07-05T06:12:43;2.17;;;1.85;;
62584;SDS011;48643;51.670;5.808;2022-07-05T06:15:11;2.72;;;2.00;;
62584;SDS011;48643;51.670;5.808;2022-07-05T06:17:38;2.58;;;1.90;;
62584;SDS011;48643;51.670;5.808;2022-07-05T06:20:06;8.25;;;4.95;;
62584;SDS011;48643;51.670;5.808;2022-07-05T06:22:34;15.45;;;10.07;;
62584;SDS011;48643;51.670;5.808;2022-07-05T06:25:02;13.60;;;9.55;;
62584;SDS011;48643;51.670;5.808;2022-07-05T06:27:49;16.30;;;10.55;;
62584;SDS011;48643;51.670;5.808;2022-07-05T06:30:17;16.63;;;10.35;;
62584;SDS011;48643;51.670;5.808;2022-07-05T06:32:46;13.80;;;10.13;;
62584;SDS011;48643;51.670;5.808;2022-07-05T06:35:14;22.55;;;10.65;;
62584;SDS011;48643;51.670;5.808;2022-07-05T06:40:10;15.48;;;10.02;;
62584;SDS011;48643;51.670;5.808;2022-07-05T06:42:43;17.58;;;10.00;;
62584;SDS011;48643;51.670;5.808;2022-07-05T06:45:10;14.40;;;9.60;;
62584;SDS011;48643;51.670;5.808;2022-07-05T06:47:38;15.30;;;9.40;;
62584;SDS011;48643;51.670;5.808;2022-07-05T06:50:06;16.75;;;9.55;;
62584;SDS011;48643;51.670;5.808;2022-07-05T06:52:33;14.52;;;8.90;;
62584;SDS011;48643;51.670;5.808;2022-07-05T06:55:01;37.72;;;13.00;;
62584;SDS011;48643;51.670;5.808;2022-07-05T06:57:28;15.98;;;9.27;;
62584;SDS011;48643;51.670;5.808;2022-07-05T06:59:57;22.65;;;10.02;;
62584;SDS011;48643;51.670;5.808;2022-07-05T07:02:26;16.45;;;9.50;;
62584;SDS011;48643;51.670;5.808;2022-07-05T07:04:54;11.73;;;9.30;;
62584;SDS011;48643;51.670;5.808;2022-07-05T07:07:39;26.13;;;9.02;;
62584;SDS011;48643;51.670;5.808;2022-07-05T07:10:25;10.75;;;7.90;;
62584;SDS011;48643;51.670;5.808;2022-07-05T07:12:58;13.18;;;8.00;;
62584;SDS011;48643;51.670;5.808;2022-07-05T07:15:26;16.63;;;8.02;;
62584;SDS011;48643;51.670;5.808;2022-07-05T07:17:54;11.18;;;7.20;;
62584;SDS011;48643;51.670;5.808;2022-07-05T07:20:21;14.27;;;8.45;;
62584;SDS011;48643;51.670;5.808;2022-07-05T07:22:49;14.65;;;7.72;;
62584;SDS011;48643;51.670;5.808;2022-07-05T07:25:16;12.80;;;8.07;;
62584;SDS011;48643;51.670;5.808;2022-07-05T07:27:47;13.27;;;6.60;;
62584;SDS011;48643;51.670;5.808;2022-07-05T07:30:16;12.65;;;7.13;;
62584;SDS011;48643;51.670;5.808;2022-07-05T07:32:44;10.63;;;6.80;;
62584;SDS011;48643;51.670;5.808;2022-07-05T07:35:12;9.73;;;6.80;;
62584;SDS011;48643;51.670;5.808;2022-07-05T07:37:39;12.13;;;7.03;;
62584;SDS011;48643;51.670;5.808;2022-07-05T07:40:07;14.07;;;7.60;;
62584;SDS011;48643;51.670;5.808;2022-07-05T07:42:35;12.63;;;6.60;;
62584;SDS011;48643;51.670;5.808;2022-07-05T07:45:03;19.45;;;6.95;;
62584;SDS011;48643;51.670;5.808;2022-07-05T07:47:31;13.13;;;6.28;;
62584;SDS011;48643;51.670;5.808;2022-07-05T07:49:58;9.68;;;6.00;;
62584;SDS011;48643;51.670;5.808;2022-07-05T07:52:26;10.77;;;6.18;;
62584;SDS011;48643;51.670;5.808;2022-07-05T07:54:54;10.15;;;5.65;;
62584;SDS011;48643;51.670;5.808;2022-07-05T07:57:21;10.63;;;5.32;;
62584;SDS011;48643;51.670;5.808;2022-07-05T07:59:49;9.60;;;5.25;;
62584;SDS011;48643;51.670;5.808;2022-07-05T08:02:16;8.75;;;5.22;;
62584;SDS011;48643;51.670;5.808;2022-07-05T08:04:47;14.32;;;5.63;;
62584;SDS011;48643;51.670;5.808;2022-07-05T08:07:16;10.80;;;5.40;;
62584;SDS011;48643;51.670;5.808;2022-07-05T08:09:45;8.68;;;5.20;;
62584;SDS011;48643;51.670;5.808;2022-07-05T08:12:12;16.08;;;4.88;;
62584;SDS011;48643;51.670;5.808;2022-07-05T08:14:40;11.65;;;3.90;;
62584;SDS011;48643;51.670;5.808;2022-07-05T08:17:07;10.80;;;3.10;;
62584;SDS011;48643;51.670;5.808;2022-07-05T08:19:35;6.25;;;3.20;;
62584;SDS011;48643;51.670;5.808;2022-07-05T08:22:22;6.68;;;3.13;;
62584;SDS011;48643;51.670;5.808;2022-07-05T08:24:49;8.13;;;3.25;;
62584;SDS011;48643;51.670;5.808;2022-07-05T08:27:17;6.32;;;3.30;;
62584;SDS011;48643;51.670;5.808;2022-07-05T08:29:44;8.25;;;3.40;;
62584;SDS011;48643;51.670;5.808;2022-07-05T08:32:12;5.82;;;3.30;;
62584;SDS011;48643;51.670;5.808;2022-07-05T08:34:39;5.68;;;3.25;;
62584;SDS011;48643;51.670;5.808;2022-07-05T08:37:06;7.10;;;3.38;;
62584;SDS011;48643;51.670;5.808;2022-07-05T08:39:40;6.47;;;3.42;;
62584;SDS011;48643;51.670;5.808;2022-07-05T08:42:08;6.05;;;3.40;;
62584;SDS011;48643;51.670;5.808;2022-07-05T08:44:39;5.70;;;3.33;;
62584;SDS011;48643;51.670;5.808;2022-07-05T08:49:35;6.75;;;3.38;;
62584;SDS011;48643;51.670;5.808;2022-07-05T08:52:04;4.90;;;3.30;;
62584;SDS011;48643;51.670;5.808;2022-07-05T08:54:34;5.90;;;3.40;;
62584;SDS011;48643;51.670;5.808;2022-07-05T08:57:04;10.70;;;4.80;;
62584;SDS011;48643;51.670;5.808;2022-07-05T08:59:38;9.10;;;5.00;;
62584;SDS011;48643;51.670;5.808;2022-07-05T09:02:07;13.55;;;4.50;;
62584;SDS011;48643;51.670;5.808;2022-07-05T09:04:36;9.50;;;4.70;;
62584;SDS011;48643;51.670;5.808;2022-07-05T09:07:09;8.18;;;4.47;;
62584;SDS011;48643;51.670;5.808;2022-07-05T09:09:38;12.40;;;5.20;;
62584;SDS011;48643;51.670;5.808;2022-07-05T09:12:13;9.88;;;5.50;;
62584;SDS011;48643;51.670;5.808;2022-07-05T09:14:48;9.13;;;5.53;;
62584;SDS011;48643;51.670;5.808;2022-07-05T09:17:17;11.07;;;5.35;;
62584;SDS011;48643;51.670;5.808;2022-07-05T09:19:50;15.93;;;5.18;;
62584;SDS011;48643;51.670;5.808;2022-07-05T09:22:17;5.82;;;4.13;;
62584;SDS011;48643;51.670;5.808;2022-07-05T09:24:45;10.10;;;4.35;;
62584;SDS011;48643;51.670;5.808;2022-07-05T09:27:14;10.48;;;4.20;;
62584;SDS011;48643;51.670;5.808;2022-07-05T09:29:53;6.68;;;3.80;;
62584;SDS011;48643;51.670;5.808;2022-07-05T09:32:28;11.75;;;3.95;;
62584;SDS011;48643;51.670;5.808;2022-07-05T09:35:17;12.70;;;3.80;;
62584;SDS011;48643;51.670;5.808;2022-07-05T09:37:44;7.35;;;3.17;;
62584;SDS011;48643;51.670;5.808;2022-07-05T09:40:12;7.32;;;3.58;;
62584;SDS011;48643;51.670;5.808;2022-07-05T09:42:46;6.78;;;3.40;;
62584;SDS011;48643;51.670;5.808;2022-07-05T09:45:23;7.32;;;3.17;;
62584;SDS011;48643;51.670;5.808;2022-07-05T09:47:53;6.63;;;3.28;;
62584;SDS011;48643;51.670;5.808;2022-07-05T09:50:42;7.78;;;3.45;;
62584;SDS011;48643;51.670;5.808;2022-07-05T09:53:27;8.82;;;3.78;;
62584;SDS011;48643;51.670;5.808;2022-07-05T09:56:10;4.82;;;3.15;;
62584;SDS011;48643;51.670;5.808;2022-07-05T09:58:38;9.88;;;3.58;;
62584;SDS011;48643;51.670;5.808;2022-07-05T10:01:22;6.70;;;3.08;;
62584;SDS011;48643;51.670;5.808;2022-07-05T10:03:50;9.05;;;3.08;;
62584;SDS011;48643;51.670;5.808;2022-07-05T10:08:46;7.03;;;3.28;;
62584;SDS011;48643;51.670;5.808;2022-07-05T10:11:15;7.95;;;3.05;;
62584;SDS011;48643;51.670;5.808;2022-07-05T10:13:47;8.20;;;3.30;;
62584;SDS011;48643;51.670;5.808;2022-07-05T10:16:16;10.25;;;3.10;;
62584;SDS011;48643;51.670;5.808;2022-07-05T10:18:47;6.55;;;3.38;;
62584;SDS011;48643;51.670;5.808;2022-07-05T10:21:15;8.93;;;3.58;;
62584;SDS011;48643;51.670;5.808;2022-07-05T10:23:48;11.13;;;3.60;;
62584;SDS011;48643;51.670;5.808;2022-07-05T10:26:23;7.45;;;3.22;;
62584;SDS011;48643;51.670;5.808;2022-07-05T10:28:51;10.68;;;3.10;;
62584;SDS011;48643;51.670;5.808;2022-07-05T10:31:26;6.22;;;3.00;;
62584;SDS011;48643;51.670;5.808;2022-07-05T10:33:55;13.07;;;3.28;;
62584;SDS011;48643;51.670;5.808;2022-07-05T10:38:51;12.43;;;3.42;;
62584;SDS011;48643;51.670;5.808;2022-07-05T10:41:20;6.27;;;3.00;;
62584;SDS011;48643;51.670;5.808;2022-07-05T10:43:55;7.00;;;3.40;;
62584;SDS011;48643;51.670;5.808;2022-07-05T10:46:41;9.20;;;3.38;;
62584;SDS011;48643;51.670;5.808;2022-07-05T10:49:10;6.72;;;3.47;;
62584;SDS011;48643;51.670;5.808;2022-07-05T10:51:38;6.32;;;3.15;;
62584;SDS011;48643;51.670;5.808;2022-07-05T10:54:05;7.43;;;3.25;;
62584;SDS011;48643;51.670;5.808;2022-07-05T10:56:34;8.25;;;3.50;;
62584;SDS011;48643;51.670;5.808;2022-07-05T10:59:09;7.75;;;3.10;;
62584;SDS011;48643;51.670;5.808;2022-07-05T11:01:39;7.05;;;3.50;;
62584;SDS011;48643;51.670;5.808;2022-07-05T11:14:39;5.75;;;3.10;;
62584;SDS011;48643;51.670;5.808;2022-07-05T11:20:03;7.32;;;3.50;;
62584;SDS011;48643;51.670;5.808;2022-07-05T11:22:31;7.30;;;3.33;;
62584;SDS011;48643;51.670;5.808;2022-07-05T11:24:59;9.07;;;3.13;;
62584;SDS011;48643;51.670;5.808;2022-07-05T11:27:27;6.50;;;3.25;;
62584;SDS011;48643;51.670;5.808;2022-07-05T11:29:54;9.40;;;3.50;;
62584;SDS011;48643;51.670;5.808;2022-07-05T11:32:23;11.70;;;3.58;;
62584;SDS011;48643;51.670;5.808;2022-07-05T11:35:14;10.20;;;3.10;;
62584;SDS011;48643;51.670;5.808;2022-07-05T11:38:25;11.70;;;3.17;;
62584;SDS011;48643;51.670;5.808;2022-07-05T11:40:55;8.98;;;3.17;;
62584;SDS011;48643;51.670;5.808;2022-07-05T11:43:25;10.23;;;3.25;;
62584;SDS011;48643;51.670;5.808;2022-07-05T11:46:00;8.80;;;3.10;;
62584;SDS011;48643;51.670;5.808;2022-07-05T11:48:29;9.02;;;3.38;;
62584;SDS011;48643;51.670;5.808;2022-07-05T11:50:56;4.88;;;2.95;;
62584;SDS011;48643;51.670;5.808;2022-07-05T11:53:26;7.45;;;3.67;;
62584;SDS011;48643;51.670;5.808;2022-07-05T11:56:13;9.43;;;3.60;;
62584;SDS011;48643;51.670;5.808;2022-07-05T11:58:40;10.45;;;3.80;;
62584;SDS011;48643;51.670;5.808;2022-07-05T12:01:08;5.85;;;3.72;;
62584;SDS011;48643;51.670;5.808;2022-07-05T12:03:35;9.23;;;3.78;;
62584;SDS011;48643;51.670;5.808;2022-07-05T12:06:10;8.68;;;3.90;;
62584;SDS011;48643;51.670;5.808;2022-07-05T12:08:38;9.05;;;3.65;;
62584;SDS011;48643;51.670;5.808;2022-07-05T12:11:05;6.88;;;3.50;;
62584;SDS011;48643;51.670;5.808;2022-07-05T12:13:51;5.05;;;3.65;;
62584;SDS011;48643;51.670;5.808;2022-07-05T12:16:19;7.68;;;3.60;;
62584;SDS011;48643;51.670;5.808;2022-07-05T12:18:50;5.68;;;3.45;;
62584;SDS011;48643;51.670;5.808;2022-07-05T12:21:17;7.43;;;4.00;;
62584;SDS011;48643;51.670;5.808;2022-07-05T12:23:49;6.93;;;3.80;;
62584;SDS011;48643;51.670;5.808;2022-07-05T12:26:17;5.38;;;3.60;;
62584;SDS011;48643;51.670;5.808;2022-07-05T12:28:44;4.95;;;3.78;;
62584;SDS011;48643;51.670;5.808;2022-07-05T12:33:42;8.50;;;3.85;;
62584;SDS011;48643;51.670;5.808;2022-07-05T12:36:10;7.30;;;3.90;;
62584;SDS011;48643;51.670;5.808;2022-07-05T12:38:38;5.70;;;4.00;;
62584;SDS011;48643;51.670;5.808;2022-07-05T12:41:06;7.68;;;3.90;;
62584;SDS011;48643;51.670;5.808;2022-07-05T12:43:33;6.68;;;4.18;;
62584;SDS011;48643;51.670;5.808;2022-07-05T12:46:14;6.32;;;4.25;;
62584;SDS011;48643;51.670;5.808;2022-07-05T12:48:41;5.75;;;4.28;;
62584;SDS011;48643;51.670;5.808;2022-07-05T12:51:10;6.28;;;4.30;;
62584;SDS011;48643;51.670;5.808;2022-07-05T12:53:44;6.22;;;4.45;;
62584;SDS011;48643;51.670;5.808;2022-07-05T12:56:30;7.20;;;4.03;;
62584;SDS011;48643;51.670;5.808;2022-07-05T12:59:36;4.68;;;4.00;;
62584;SDS011;48643;51.670;5.808;2022-07-05T13:02:04;6.45;;;4.18;;
62584;SDS011;48643;51.670;5.808;2022-07-05T13:04:31;6.20;;;4.10;;
62584;SDS011;48643;51.670;5.808;2022-07-05T13:06:59;5.50;;;3.67;;
62584;SDS011;48643;51.670;5.808;2022-07-05T13:09:34;6.50;;;4.10;;
62584;SDS011;48643;51.670;5.808;2022-07-05T13:14:33;5.20;;;4.00;;
62584;SDS011;48643;51.670;5.808;2022-07-05T13:17:00;6.75;;;4.38;;
62584;SDS011;48643;51.670;5.808;2022-07-05T13:19:28;7.68;;;4.25;;
62584;SDS011;48643;51.670;5.808;2022-07-05T13:21:56;8.07;;;4.07;;
62584;SDS011;48643;51.670;5.808;2022-07-05T13:24:23;6.45;;;4.00;;
62584;SDS011;48643;51.670;5.808;2022-07-05T13:26:51;5.18;;;4.07;;
62584;SDS011;48643;51.670;5.808;2022-07-05T13:29:18;5.63;;;4.00;;
62584;SDS011;48643;51.670;5.808;2022-07-05T13:31:46;5.55;;;4.20;;
62584;SDS011;48643;51.670;5.808;2022-07-05T13:34:14;6.10;;;4.10;;
62584;SDS011;48643;51.670;5.808;2022-07-05T13:36:41;12.45;;;3.47;;
62584;SDS011;48643;51.670;5.808;2022-07-05T13:39:08;5.30;;;2.80;;
62584;SDS011;48643;51.670;5.808;2022-07-05T13:41:36;5.72;;;2.55;;
62584;SDS011;48643;51.670;5.808;2022-07-05T13:44:03;11.18;;;3.10;;
62584;SDS011;48643;51.670;5.808;2022-07-05T13:46:31;7.45;;;2.22;;
62584;SDS011;48643;51.670;5.808;2022-07-05T13:48:58;6.47;;;2.45;;
62584;SDS011;48643;51.670;5.808;2022-07-05T13:51:26;7.18;;;2.40;;
62584;SDS011;48643;51.670;5.808;2022-07-05T13:53:55;6.93;;;2.30;;
62584;SDS011;48643;51.670;5.808;2022-07-05T13:56:22;9.50;;;2.33;;
62584;SDS011;48643;51.670;5.808;2022-07-05T13:58:50;10.10;;;2.42;;
62584;SDS011;48643;51.670;5.808;2022-07-05T14:01:17;10.60;;;2.40;;
62584;SDS011;48643;51.670;5.808;2022-07-05T14:03:47;6.45;;;2.30;;
62584;SDS011;48643;51.670;5.808;2022-07-05T14:06:14;7.47;;;2.30;;
62584;SDS011;48643;51.670;5.808;2022-07-05T14:08:42;6.82;;;2.10;;
62584;SDS011;48643;51.670;5.808;2022-07-05T14:11:10;7.25;;;2.25;;
62584;SDS011;48643;51.670;5.808;2022-07-05T14:13:38;6.28;;;2.30;;
62584;SDS011;48643;51.670;5.808;2022-07-05T14:16:06;7.47;;;2.07;;
62584;SDS011;48643;51.670;5.808;2022-07-05T14:18:34;5.78;;;2.13;;
62584;SDS011;48643;51.670;5.808;2022-07-05T14:21:02;7.78;;;2.20;;
62584;SDS011;48643;51.670;5.808;2022-07-05T14:23:29;7.77;;;2.17;;
62584;SDS011;48643;51.670;5.808;2022-07-05T14:25:59;7.40;;;2.35;;
62584;SDS011;48643;51.670;5.808;2022-07-05T14:28:28;7.82;;;2.00;;
62584;SDS011;48643;51.670;5.808;2022-07-05T14:30:55;6.88;;;2.00;;
62584;SDS011;48643;51.670;5.808;2022-07-05T14:33:23;6.85;;;1.90;;
62584;SDS011;48643;51.670;5.808;2022-07-05T14:35:50;6.68;;;2.00;;
62584;SDS011;48643;51.670;5.808;2022-07-05T14:38:18;6.57;;;2.20;;
62584;SDS011;48643;51.670;5.808;2022-07-05T14:40:45;5.05;;;2.10;;
62584;SDS011;48643;51.670;5.808;2022-07-05T14:43:13;5.15;;;2.00;;
62584;SDS011;48643;51.670;5.808;2022-07-05T14:45:40;4.75;;;2.20;;
62584;SDS011;48643;51.670;5.808;2022-07-05T14:48:08;6.03;;;2.00;;
62584;SDS011;48643;51.670;5.808;2022-07-05T14:50:35;8.70;;;2.30;;
62584;SDS011;48643;51.670;5.808;2022-07-05T14:53:02;6.28;;;1.88;;
62584;SDS011;48643;51.670;5.808;2022-07-05T14:55:35;6.22;;;2.20;;
62584;SDS011;48643;51.670;5.808;2022-07-05T14:58:02;3.92;;;2.00;;
62584;SDS011;48643;51.670;5.808;2022-07-05T15:00:30;4.82;;;1.98;;
62584;SDS011;48643;51.670;5.808;2022-07-05T15:02:59;4.63;;;2.10;;
62584;SDS011;48643;51.670;5.808;2022-07-05T15:05:26;7.93;;;2.10;;
62584;SDS011;48643;51.670;5.808;2022-07-05T15:07:54;6.95;;;1.90;;
62584;SDS011;48643;51.670;5.808;2022-07-05T15:10:21;8.05;;;1.98;;
62584;SDS011;48643;51.670;5.808;2022-07-05T15:12:48;6.13;;;2.00;;
62584;SDS011;48643;51.670;5.808;2022-07-05T15:15:16;4.80;;;2.00;;
62584;SDS011;48643;51.670;5.808;2022-07-05T15:17:43;3.33;;;1.80;;
62584;SDS011;48643;51.670;5.808;2022-07-05T15:20:11;8.25;;;1.83;;
62584;SDS011;48643;51.670;5.808;2022-07-05T15:22:39;5.68;;;2.00;;
62584;SDS011;48643;51.670;5.808;2022-07-05T15:25:06;4.80;;;1.83;;
62584;SDS011;48643;51.670;5.808;2022-07-05T15:27:34;2.93;;;1.70;;
62584;SDS011;48643;51.670;5.808;2022-07-05T15:30:02;4.18;;;1.67;;